createdAt,value
2019-01-31T00:01:39.332Z,0.80
2019-01-31T00:05:25.075Z,0.63
2019-01-31T00:08:46.450Z,2.33
2019-01-31T00:12:12.125Z,0.80
2019-01-31T00:15:13.679Z,0.47
2019-01-31T00:18:23.822Z,0.80
2019-01-31T00:21:15.868Z,0.90
2019-01-31T00:24:41.334Z,2.07
2019-01-31T00:27:46.730Z,1.70
2019-01-31T00:31:01.391Z,0.50
2019-01-31T00:34:35.866Z,2.53
2019-01-31T00:41:10.235Z,0.80
2019-01-31T00:44:20.394Z,1.57
2019-01-31T00:47:52.901Z,1.10
2019-01-31T00:50:57.336Z,0.90
2019-01-31T00:53:44.442Z,0.70
2019-01-31T00:57:19.281Z,0.80
2019-01-31T01:00:46.883Z,0.70
2019-01-31T01:04:04.785Z,0.87
2019-01-31T01:07:36.048Z,0.60
2019-01-31T01:10:49.055Z,2.57
2019-01-31T01:14:11.890Z,1.55
2019-01-31T01:17:39.561Z,1.20
2019-01-31T01:20:36.512Z,2.87
2019-01-31T01:23:54.802Z,0.90
2019-01-31T01:26:42.180Z,0.60
2019-01-31T01:30:18.782Z,0.63
2019-01-31T01:34:07.683Z,0.70
2019-01-31T01:37:03.255Z,1.27
2019-01-31T01:40:54.052Z,1.33
2019-01-31T01:44:01.600Z,0.93
2019-01-31T01:47:08.714Z,2.27
2019-01-31T01:50:25.890Z,0.70
2019-01-31T01:53:39.514Z,1.17
2019-01-31T01:56:43.626Z,2.25
2019-01-31T02:00:15.922Z,1.20
2019-01-31T02:03:41.425Z,0.83
2019-01-31T02:06:56.701Z,2.83
2019-01-31T02:09:51.904Z,1.80
2019-01-31T02:13:42.233Z,3.30
2019-01-31T02:17:02.538Z,0.70
2019-01-31T02:20:34.776Z,0.63
2019-01-31T02:23:44.171Z,1.77
2019-01-31T02:27:21.755Z,1.20
2019-01-31T02:30:45.764Z,1.33
2019-01-31T02:34:27.031Z,1.40
2019-01-31T02:38:10.294Z,1.60
2019-01-31T02:41:30.617Z,2.43
2019-01-31T02:44:47.155Z,2.67
2019-01-31T02:47:52.246Z,3.20
2019-01-31T02:51:09.058Z,0.90
2019-01-31T02:54:34.570Z,1.60
2019-01-31T02:58:10.225Z,1.40
2019-01-31T03:01:22.112Z,1.20
2019-01-31T03:04:53.660Z,1.07
2019-01-31T03:08:10.430Z,2.90
2019-01-31T03:11:12.477Z,0.97
2019-01-31T03:14:29.708Z,0.97
2019-01-31T03:17:56.548Z,0.77
2019-01-31T03:21:14.040Z,2.07
2019-01-31T03:24:31.553Z,0.80
2019-01-31T03:27:41.556Z,1.13
2019-01-31T03:31:11.825Z,0.80
2019-01-31T03:34:33.244Z,1.43
2019-01-31T03:37:53.108Z,1.80
2019-01-31T03:41:00.788Z,1.73
2019-01-31T03:44:01.528Z,1.60
2019-01-31T03:47:30.633Z,2.83
2019-01-31T03:51:19.323Z,1.83
2019-01-31T03:54:36.909Z,0.87
2019-01-31T03:58:00.365Z,1.67
2019-01-31T04:01:35.108Z,0.88
2019-01-31T04:04:18.497Z,1.07
2019-01-31T04:06:50.322Z,1.57
2019-01-31T04:09:22.119Z,0.80
2019-01-31T04:11:54.242Z,2.93
2019-01-31T04:14:27.424Z,1.10
2019-01-31T04:16:59.325Z,1.33
2019-01-31T04:19:31.248Z,2.30
2019-01-31T04:22:03.352Z,1.40
2019-01-31T04:24:35.229Z,1.23
2019-01-31T04:27:07.060Z,1.63
2019-01-31T04:29:39.098Z,1.33
2019-01-31T04:32:11.142Z,1.20
2019-01-31T04:34:42.919Z,1.93
2019-01-31T04:37:14.791Z,0.70
2019-01-31T04:39:46.550Z,1.63
2019-01-31T04:42:18.711Z,2.60
2019-01-31T04:44:50.862Z,2.22
2019-01-31T04:47:22.653Z,2.90
2019-01-31T04:49:54.402Z,3.70
2019-01-31T04:52:26.553Z,3.10
2019-01-31T04:54:58.580Z,1.80
2019-01-31T04:57:30.451Z,3.23
2019-01-31T05:00:02.551Z,1.60
2019-01-31T05:02:34.536Z,1.87
2019-01-31T05:05:07.456Z,0.80
2019-01-31T05:10:12.671Z,0.75
2019-01-31T05:12:44.808Z,1.87
2019-01-31T05:15:16.840Z,1.45
2019-01-31T05:17:48.614Z,2.17
2019-01-31T05:20:20.368Z,2.77
2019-01-31T05:22:52.142Z,0.93
2019-01-31T05:25:23.888Z,1.93
2019-01-31T05:27:55.768Z,1.83
2019-01-31T05:30:28.152Z,1.57
2019-01-31T05:33:00.457Z,1.77
2019-01-31T05:35:32.281Z,1.60
2019-01-31T05:38:04.564Z,3.17
2019-01-31T05:40:36.616Z,1.15
2019-01-31T05:43:08.435Z,1.33
2019-01-31T05:45:40.192Z,1.50
2019-01-31T05:48:11.968Z,1.37
2019-01-31T05:50:43.847Z,1.43
2019-01-31T05:53:16.047Z,1.37
2019-01-31T05:55:48.104Z,1.17
2019-01-31T05:58:19.909Z,2.10
2019-01-31T06:00:51.737Z,1.50
2019-01-31T06:03:23.556Z,1.50
2019-01-31T06:05:55.458Z,1.57
2019-01-31T06:08:27.345Z,3.63
2019-01-31T06:11:07.078Z,2.60
2019-01-31T06:13:32.653Z,1.00
2019-01-31T06:16:06.724Z,2.40
2019-01-31T06:18:38.216Z,2.90
2019-01-31T06:21:10.029Z,2.47
2019-01-31T06:23:41.793Z,1.63
2019-01-31T06:26:13.581Z,1.10
2019-01-31T06:28:45.825Z,4.50
2019-01-31T06:31:17.975Z,0.93
2019-01-31T06:33:49.727Z,1.23
2019-01-31T06:36:21.525Z,1.47
2019-01-31T06:38:53.351Z,2.10
2019-01-31T06:41:25.532Z,2.50
2019-01-31T06:43:57.910Z,3.10
2019-01-31T06:46:30.073Z,6.80
2019-01-31T06:49:01.922Z,4.70
2019-01-31T06:51:33.985Z,2.10
2019-01-31T06:54:07.811Z,3.73
2019-01-31T06:56:39.590Z,2.10
2019-01-31T06:59:11.466Z,1.80
2019-01-31T07:01:43.387Z,4.13
2019-01-31T07:04:15.424Z,2.40
2019-01-31T07:06:47.588Z,2.40
2019-01-31T07:09:19.611Z,1.92
2019-01-31T07:11:51.385Z,2.30
2019-01-31T07:14:23.514Z,6.53
2019-01-31T07:16:55.863Z,2.75
2019-01-31T07:19:27.897Z,1.60
2019-01-31T07:22:00.403Z,1.70
2019-01-31T07:24:32.482Z,1.90
2019-01-31T07:27:04.269Z,2.10
2019-01-31T07:29:36.124Z,1.40
2019-01-31T07:32:08.384Z,4.50
2019-01-31T07:34:40.459Z,2.27
2019-01-31T07:37:12.270Z,4.27
2019-01-31T07:39:44.027Z,3.47
2019-01-31T07:42:16.100Z,2.70
2019-01-31T07:44:47.960Z,2.77
2019-01-31T07:47:20.042Z,4.47
2019-01-31T07:49:52.055Z,2.70
2019-01-31T07:52:23.871Z,3.03
2019-01-31T07:54:55.996Z,3.17
2019-01-31T07:57:28.029Z,2.73
2019-01-31T07:59:59.782Z,1.63
2019-01-31T08:02:31.665Z,2.73
2019-01-31T08:05:03.424Z,3.03
2019-01-31T08:07:35.301Z,2.93
2019-01-31T08:10:11.749Z,9.10
2019-01-31T08:12:43.565Z,4.87
2019-01-31T08:15:17.374Z,3.87
2019-01-31T08:17:49.501Z,3.57
2019-01-31T08:20:21.281Z,4.57
2019-01-31T08:22:53.123Z,8.47
2019-01-31T08:25:25.042Z,4.30
2019-01-31T08:27:57.154Z,5.33
2019-01-31T08:30:32.796Z,4.10
2019-01-31T08:33:04.561Z,4.27
2019-01-31T08:35:36.749Z,4.70
2019-01-31T08:38:08.894Z,2.33
2019-01-31T08:40:40.827Z,4.30
2019-01-31T08:43:12.638Z,2.40
2019-01-31T08:45:44.530Z,3.50
2019-01-31T08:48:16.314Z,6.37
2019-01-31T08:50:48.115Z,2.87
2019-01-31T08:53:19.954Z,4.67
2019-01-31T08:55:51.713Z,5.93
2019-01-31T08:58:23.877Z,3.90
2019-01-31T09:00:56.343Z,4.08
2019-01-31T09:03:28.420Z,5.55
2019-01-31T09:06:00.176Z,2.70
2019-01-31T09:08:31.964Z,6.33
2019-01-31T09:11:03.717Z,2.83
2019-01-31T09:13:38.060Z,3.50
2019-01-31T09:16:09.285Z,3.13
2019-01-31T09:18:41.070Z,8.67
2019-01-31T09:21:52.297Z,3.57
2019-01-31T09:25:14.748Z,4.83
2019-01-31T09:28:17.729Z,3.17
2019-01-31T09:31:38.426Z,3.65
2019-01-31T09:34:57.371Z,4.50
2019-01-31T09:38:00.009Z,2.73
2019-01-31T09:41:05.085Z,3.03
2019-01-31T09:44:46.358Z,2.30
2019-01-31T09:48:03.315Z,2.37
2019-01-31T09:51:11.223Z,4.43
2019-01-31T09:54:39.586Z,4.43
2019-01-31T09:58:11.220Z,3.03
2019-01-31T10:01:31.553Z,3.53
2019-01-31T10:04:43.241Z,6.73
2019-01-31T10:08:07.834Z,3.73
2019-01-31T10:11:24.238Z,4.40
2019-01-31T10:14:40.759Z,6.43
2019-01-31T10:18:07.018Z,2.27
2019-01-31T10:21:39.180Z,4.43
2019-01-31T10:25:20.073Z,3.00
2019-01-31T10:28:47.105Z,3.47
2019-01-31T10:32:03.699Z,3.90
2019-01-31T10:35:09.802Z,4.70
2019-01-31T10:38:15.092Z,2.80
2019-01-31T10:42:02.794Z,4.53
2019-01-31T10:45:33.621Z,2.70
2019-01-31T10:49:03.185Z,4.97
2019-01-31T10:52:09.571Z,2.87
2019-01-31T10:55:03.333Z,3.70
2019-01-31T10:58:51.035Z,2.33
2019-01-31T11:02:32.255Z,4.20
2019-01-31T11:06:06.274Z,3.80
2019-01-31T11:09:26.600Z,4.67
2019-01-31T11:12:45.006Z,2.83
2019-01-31T11:16:18.904Z,4.40
2019-01-31T11:19:50.828Z,4.17
2019-01-31T11:23:19.995Z,3.02
2019-01-31T11:26:53.725Z,4.85
2019-01-31T11:30:32.456Z,1.87
2019-01-31T11:34:17.096Z,3.17
2019-01-31T11:37:18.481Z,4.28
2019-01-31T11:41:17.969Z,4.45
2019-01-31T11:44:33.246Z,3.67
2019-01-31T11:48:06.478Z,2.22
2019-01-31T11:51:54.230Z,4.28
2019-01-31T11:55:41.407Z,2.83
2019-01-31T11:59:00.860Z,4.22
2019-01-31T12:01:33.807Z,1.32
2019-01-31T12:04:13.495Z,2.90
2019-01-31T12:06:45.835Z,1.62
2019-01-31T12:09:22.644Z,1.98
2019-01-31T12:11:54.978Z,1.98
2019-01-31T12:14:27.281Z,1.80
2019-01-31T12:16:59.965Z,1.92
2019-01-31T12:19:31.726Z,1.63
2019-01-31T12:22:04.058Z,3.20
2019-01-31T12:24:36.411Z,3.67
2019-01-31T12:27:08.903Z,2.17
2019-01-31T12:29:41.224Z,3.62
2019-01-31T12:32:13.895Z,2.02
2019-01-31T12:34:45.926Z,2.75
2019-01-31T12:37:18.355Z,2.83
2019-01-31T12:39:52.145Z,1.60
2019-01-31T12:42:24.727Z,3.45
2019-01-31T12:44:57.040Z,3.10
2019-01-31T12:47:29.682Z,3.27
2019-01-31T12:50:01.494Z,1.37
2019-01-31T12:52:33.823Z,2.15
2019-01-31T12:55:06.600Z,3.20
2019-01-31T12:57:38.664Z,2.70
2019-01-31T13:00:22.801Z,3.58
2019-01-31T13:02:55.454Z,3.55
2019-01-31T13:05:27.215Z,2.10
2019-01-31T13:07:59.557Z,2.90
2019-01-31T13:10:32.311Z,1.65
2019-01-31T13:13:04.369Z,2.22
2019-01-31T13:15:36.704Z,1.20
2019-01-31T13:18:09.006Z,3.40
2019-01-31T13:20:41.343Z,1.05
2019-01-31T13:23:13.730Z,2.60
2019-01-31T13:25:46.275Z,4.03
2019-01-31T13:28:18.232Z,2.37
2019-01-31T13:30:50.615Z,1.52
2019-01-31T13:33:23.274Z,1.20
2019-01-31T13:35:55.573Z,1.30
2019-01-31T13:38:27.748Z,1.20
2019-01-31T13:41:00.462Z,1.85
2019-01-31T13:43:32.586Z,1.67
2019-01-31T13:46:05.382Z,3.17
2019-01-31T13:48:37.566Z,2.52
2019-01-31T13:51:11.118Z,2.35
2019-01-31T13:56:13.671Z,2.12
2019-01-31T13:58:46.378Z,2.92
2019-01-31T14:01:18.733Z,1.20
2019-01-31T14:03:50.505Z,3.50
2019-01-31T14:06:23.072Z,3.72
2019-01-31T14:08:54.818Z,3.60
2019-01-31T14:11:27.477Z,3.02
2019-01-31T14:14:08.730Z,7.57
2019-01-31T14:16:33.286Z,1.35
2019-01-31T14:19:05.712Z,3.22
2019-01-31T14:21:38.127Z,1.72
2019-01-31T14:24:10.562Z,1.75
2019-01-31T14:26:42.948Z,5.03
2019-01-31T14:29:15.265Z,1.50
2019-01-31T14:31:47.619Z,2.12
2019-01-31T14:34:20.226Z,2.70
2019-01-31T14:36:52.092Z,5.93
2019-01-31T14:39:24.759Z,1.92
2019-01-31T14:41:56.803Z,1.17
2019-01-31T14:44:29.127Z,3.08
2019-01-31T14:47:01.747Z,5.33
2019-01-31T14:49:33.501Z,5.17
2019-01-31T14:52:06.123Z,2.70
2019-01-31T14:54:37.867Z,3.23
2019-01-31T14:57:10.430Z,2.72
2019-01-31T14:59:42.227Z,2.30
2019-01-31T15:02:14.561Z,1.62
2019-01-31T15:04:46.926Z,2.77
2019-01-31T15:07:19.453Z,2.92
2019-01-31T15:09:53.608Z,9.03
2019-01-31T15:12:26.055Z,6.92
2019-01-31T15:14:58.487Z,2.02
2019-01-31T15:17:30.827Z,1.47
2019-01-31T15:20:03.142Z,4.33
2019-01-31T15:22:35.524Z,2.25
2019-01-31T15:25:08.365Z,3.42
2019-01-31T15:27:42.178Z,1.67
2019-01-31T15:30:18.739Z,2.17
2019-01-31T15:32:51.060Z,2.50
2019-01-31T15:35:23.379Z,2.25
2019-01-31T15:37:55.724Z,1.20
2019-01-31T15:40:34.581Z,2.12
2019-01-31T15:43:07.052Z,2.60
2019-01-31T15:45:39.424Z,1.32
2019-01-31T15:48:12.240Z,2.00
2019-01-31T15:50:44.409Z,4.53
2019-01-31T15:53:16.733Z,3.12
2019-01-31T15:55:49.149Z,1.95
2019-01-31T15:58:22.328Z,9.13
2019-01-31T16:00:58.568Z,4.70
2019-01-31T16:03:30.998Z,6.40
2019-01-31T16:06:03.416Z,8.05
2019-01-31T16:08:35.755Z,6.62
2019-01-31T16:11:08.189Z,7.22
2019-01-31T16:13:40.905Z,2.25
2019-01-31T16:16:13.010Z,2.00
2019-01-31T16:18:45.329Z,4.30
2019-01-31T16:21:17.729Z,3.00
2019-01-31T16:23:50.149Z,3.12
2019-01-31T16:26:22.632Z,2.20
2019-01-31T16:28:55.303Z,3.40
2019-01-31T16:31:27.053Z,1.70
2019-01-31T16:33:59.391Z,3.25
2019-01-31T16:36:31.694Z,3.47
2019-01-31T16:39:04.260Z,3.05
2019-01-31T16:41:36.155Z,2.37
2019-01-31T16:44:10.431Z,2.95
2019-01-31T16:46:42.807Z,2.77
2019-01-31T16:49:15.127Z,1.40
2019-01-31T16:51:47.819Z,3.08
2019-01-31T16:54:19.861Z,3.67
2019-01-31T16:56:52.509Z,2.33
2019-01-31T16:59:24.548Z,1.50
2019-01-31T17:01:57.117Z,4.10
2019-01-31T17:04:29.457Z,3.33
2019-01-31T17:07:01.825Z,2.12
2019-01-31T17:09:33.707Z,4.93
2019-01-31T17:12:06.189Z,1.87
2019-01-31T17:14:38.576Z,3.05
2019-01-31T17:17:10.346Z,2.77
2019-01-31T17:19:42.202Z,2.13
2019-01-31T17:22:14.381Z,4.03
2019-01-31T17:24:46.468Z,6.60
2019-01-31T17:27:20.602Z,4.63
2019-01-31T17:29:51.745Z,6.73
2019-01-31T17:32:24.078Z,4.50
2019-01-31T17:34:55.910Z,6.37
2019-01-31T17:37:27.731Z,5.13
2019-01-31T17:39:59.608Z,4.37
2019-01-31T17:42:32.104Z,7.40
2019-01-31T17:45:04.600Z,4.05
2019-01-31T17:47:36.696Z,5.40
2019-01-31T17:50:10.766Z,3.80
2019-01-31T17:52:42.618Z,4.10
2019-01-31T17:55:17.772Z,6.57
2019-01-31T17:57:49.537Z,6.07
2019-01-31T18:00:30.514Z,8.23
2019-01-31T18:03:02.272Z,4.23
2019-01-31T18:05:34.154Z,3.97
2019-01-31T18:08:09.051Z,3.50
2019-01-31T18:10:39.519Z,6.13
2019-01-31T18:13:11.270Z,6.80
2019-01-31T18:15:46.513Z,5.10
2019-01-31T18:18:18.265Z,9.23
2019-01-31T18:20:50.030Z,6.13
2019-01-31T18:23:21.851Z,9.67
2019-01-31T18:25:53.700Z,6.00
2019-01-31T18:28:25.515Z,3.87
2019-01-31T18:30:57.330Z,5.37
2019-01-31T18:33:29.162Z,4.63
2019-01-31T18:36:00.983Z,3.30
2019-01-31T18:38:32.922Z,4.63
2019-01-31T18:41:04.717Z,4.40
2019-01-31T18:43:37.800Z,2.40
2019-01-31T18:48:40.411Z,6.83
2019-01-31T18:51:12.507Z,4.57
2019-01-31T18:53:44.789Z,5.37
2019-01-31T18:56:17.264Z,6.25
2019-01-31T18:58:49.861Z,9.05
2019-01-31T19:01:22.044Z,5.17
2019-01-31T19:03:53.801Z,3.87
2019-01-31T19:06:25.760Z,4.43
2019-01-31T19:08:57.581Z,5.67
2019-01-31T19:11:29.355Z,4.60
2019-01-31T19:14:01.888Z,6.93
2019-01-31T19:16:34.052Z,5.85
2019-01-31T19:19:06.183Z,6.83
2019-01-31T19:21:38.331Z,6.67
2019-01-31T19:24:10.505Z,5.40
2019-01-31T19:26:42.639Z,6.35
2019-01-31T19:29:14.578Z,4.90
2019-01-31T19:31:46.399Z,6.43
2019-01-31T19:34:18.529Z,4.93
2019-01-31T19:36:50.722Z,6.12
2019-01-31T19:39:22.493Z,4.73
2019-01-31T19:41:54.443Z,7.53
2019-01-31T19:44:26.244Z,5.40
2019-01-31T19:46:58.097Z,4.63
2019-01-31T19:49:29.898Z,7.23
2019-01-31T19:52:02.024Z,4.80
2019-01-31T19:54:34.703Z,4.42
2019-01-31T19:57:06.908Z,5.85
2019-01-31T19:59:38.721Z,6.10
2019-01-31T20:02:10.589Z,3.87
2019-01-31T20:04:42.362Z,4.30
2019-01-31T20:07:14.553Z,14.33
2019-01-31T20:09:47.233Z,3.60
2019-01-31T20:12:19.295Z,6.15
2019-01-31T20:14:51.435Z,5.97
2019-01-31T20:17:23.225Z,3.77
2019-01-31T20:19:55.484Z,4.97
2019-01-31T20:22:27.543Z,8.78
2019-01-31T20:24:59.802Z,3.97
2019-01-31T20:27:32.295Z,5.78
2019-01-31T20:30:05.467Z,4.30
2019-01-31T20:32:37.499Z,5.53
2019-01-31T20:35:11.368Z,4.17
2019-01-31T20:37:43.319Z,5.10
2019-01-31T20:40:18.619Z,3.03
2019-01-31T20:42:50.407Z,3.73
2019-01-31T20:45:25.121Z,4.67
2019-01-31T20:47:56.927Z,6.57
2019-01-31T20:50:31.621Z,4.00
2019-01-31T20:53:03.481Z,3.87
2019-01-31T20:55:35.305Z,7.60
2019-01-31T20:58:07.872Z,4.33
2019-01-31T21:00:49.416Z,4.40
2019-01-31T21:03:24.635Z,5.03
2019-01-31T21:05:55.171Z,3.87
2019-01-31T21:08:27.059Z,3.73
2019-01-31T21:10:58.847Z,8.03
2019-01-31T21:13:30.635Z,5.40
2019-01-31T21:16:02.498Z,3.83
2019-01-31T21:18:34.550Z,5.43
2019-01-31T21:21:06.348Z,7.70
2019-01-31T21:23:38.186Z,6.43
2019-01-31T21:26:10.965Z,11.80
2019-01-31T21:28:43.161Z,6.28
2019-01-31T21:31:15.161Z,5.90
2019-01-31T21:33:46.942Z,10.53
2019-01-31T21:36:18.715Z,6.50
2019-01-31T21:38:50.568Z,7.27
2019-01-31T21:41:22.338Z,10.13
2019-01-31T21:43:54.220Z,7.13
2019-01-31T21:46:26.061Z,9.73
2019-01-31T21:48:57.858Z,7.77
2019-01-31T21:51:29.614Z,9.37
2019-01-31T21:54:01.440Z,10.10
2019-01-31T21:56:33.500Z,6.50
2019-01-31T21:59:05.354Z,9.87
2019-01-31T22:01:37.414Z,9.57
2019-01-31T22:04:09.210Z,13.97
2019-01-31T22:06:41.071Z,8.57
2019-01-31T22:09:12.849Z,6.77
2019-01-31T22:11:44.604Z,12.33
2019-01-31T22:14:16.446Z,11.80
2019-01-31T22:16:49.371Z,10.13
2019-01-31T22:19:21.581Z,15.25
2019-01-31T22:21:56.064Z,10.43
2019-01-31T22:24:27.864Z,15.43
2019-01-31T22:26:59.741Z,11.30
2019-01-31T22:29:31.564Z,10.50
2019-01-31T22:32:03.402Z,13.50
2019-01-31T22:34:36.208Z,8.53
2019-01-31T22:37:08.249Z,11.33
2019-01-31T22:39:40.303Z,9.23
2019-01-31T22:42:12.979Z,12.58
2019-01-31T22:44:44.931Z,15.80
2019-01-31T22:47:25.886Z,11.90
2019-01-31T22:49:50.419Z,11.97
2019-01-31T22:52:22.277Z,14.03
2019-01-31T22:54:54.368Z,10.53
2019-01-31T22:57:26.139Z,11.87
2019-01-31T22:59:57.913Z,12.93
2019-01-31T23:02:29.741Z,10.10
2019-01-31T23:05:01.533Z,12.10
2019-01-31T23:07:33.764Z,10.80
2019-01-31T23:10:07.072Z,12.45
2019-01-31T23:15:10.230Z,7.70
2019-01-31T23:17:42.720Z,9.15
2019-01-31T23:20:14.954Z,12.75
2019-01-31T23:22:46.858Z,9.57
2019-01-31T23:25:18.647Z,13.23
2019-01-31T23:27:50.559Z,12.07
2019-01-31T23:30:22.505Z,10.57
2019-01-31T23:32:54.399Z,11.30
2019-01-31T23:35:26.181Z,14.10
2019-01-31T23:37:58.017Z,11.97
2019-01-31T23:40:29.824Z,19.23
2019-01-31T23:43:01.912Z,20.20
2019-01-31T23:45:34.088Z,11.13
2019-01-31T23:48:06.081Z,14.40
2019-01-31T23:50:38.061Z,15.33
2019-01-31T23:53:09.860Z,18.47
2019-01-31T23:55:41.883Z,14.43
2019-01-31T23:58:13.714Z,14.13
